sensor_id;sensor_type;location;lat;lon;timestamp;P1;durP1;ratioP1;P2;durP2;ratioP2
59306;SDS011;47983;53.016;-2.260;2022-12-07T00:01:41;16.63;;;7.20;;
59306;SDS011;47983;53.016;-2.260;2022-12-07T00:06:40;21.00;;;6.82;;
59306;SDS011;47983;53.016;-2.260;2022-12-07T00:09:13;18.08;;;7.13;;
59306;SDS011;47983;53.016;-2.260;2022-12-07T00:11:42;18.98;;;7.85;;
59306;SDS011;47983;53.016;-2.260;2022-12-07T00:14:12;15.90;;;7.35;;
59306;SDS011;47983;53.016;-2.260;2022-12-07T00:16:41;13.13;;;6.80;;
59306;SDS011;47983;53.016;-2.260;2022-12-07T00:19:10;17.77;;;7.30;;
59306;SDS011;47983;53.016;-2.260;2022-12-07T00:21:39;12.73;;;6.90;;
59306;SDS011;47983;53.016;-2.260;2022-12-07T00:24:07;17.05;;;7.60;;
59306;SDS011;47983;53.016;-2.260;2022-12-07T00:26:37;14.90;;;6.63;;
59306;SDS011;47983;53.016;-2.260;2022-12-07T00:29:08;16.13;;;7.72;;
59306;SDS011;47983;53.016;-2.260;2022-12-07T00:31:40;15.25;;;8.45;;
59306;SDS011;47983;53.016;-2.260;2022-12-07T00:34:14;24.10;;;8.30;;
59306;SDS011;47983;53.016;-2.260;2022-12-07T00:36:44;23.08;;;9.25;;
59306;SDS011;47983;53.016;-2.260;2022-12-07T00:39:12;15.57;;;8.25;;
59306;SDS011;47983;53.016;-2.260;2022-12-07T00:41:40;24.40;;;9.50;;
59306;SDS011;47983;53.016;-2.260;2022-12-07T00:44:07;18.60;;;7.78;;
59306;SDS011;47983;53.016;-2.260;2022-12-07T00:46:35;20.55;;;7.80;;
59306;SDS011;47983;53.016;-2.260;2022-12-07T00:49:03;23.98;;;8.35;;
59306;SDS011;47983;53.016;-2.260;2022-12-07T00:51:31;17.80;;;7.30;;
59306;SDS011;47983;53.016;-2.260;2022-12-07T00:53:58;19.27;;;7.57;;
59306;SDS011;47983;53.016;-2.260;2022-12-07T00:56:29;16.15;;;7.85;;
59306;SDS011;47983;53.016;-2.260;2022-12-07T00:58:58;18.42;;;8.32;;
59306;SDS011;47983;53.016;-2.260;2022-12-07T01:01:29;15.73;;;8.25;;
59306;SDS011;47983;53.016;-2.260;2022-12-07T01:03:59;21.67;;;8.20;;
59306;SDS011;47983;53.016;-2.260;2022-12-07T01:06:30;16.55;;;7.57;;
59306;SDS011;47983;53.016;-2.260;2022-12-07T01:08:59;20.17;;;8.10;;
59306;SDS011;47983;53.016;-2.260;2022-12-07T01:11:28;21.92;;;8.18;;
59306;SDS011;47983;53.016;-2.260;2022-12-07T01:16:26;22.88;;;9.00;;
59306;SDS011;47983;53.016;-2.260;2022-12-07T01:18:55;18.35;;;7.85;;
59306;SDS011;47983;53.016;-2.260;2022-12-07T01:21:25;19.25;;;8.35;;
59306;SDS011;47983;53.016;-2.260;2022-12-07T01:23:54;18.50;;;8.98;;
59306;SDS011;47983;53.016;-2.260;2022-12-07T01:26:24;39.20;;;9.68;;
59306;SDS011;47983;53.016;-2.260;2022-12-07T01:28:53;19.92;;;8.95;;
59306;SDS011;47983;53.016;-2.260;2022-12-07T01:31:26;18.50;;;9.20;;
59306;SDS011;47983;53.016;-2.260;2022-12-07T01:33:55;17.60;;;9.38;;
59306;SDS011;47983;53.016;-2.260;2022-12-07T01:36:33;22.17;;;10.45;;
59306;SDS011;47983;53.016;-2.260;2022-12-07T01:39:04;25.65;;;10.18;;
59306;SDS011;47983;53.016;-2.260;2022-12-07T01:41:34;28.58;;;9.27;;
59306;SDS011;47983;53.016;-2.260;2022-12-07T01:44:14;18.38;;;8.25;;
59306;SDS011;47983;53.016;-2.260;2022-12-07T01:52:07;23.70;;;8.20;;
59306;SDS011;47983;53.016;-2.260;2022-12-07T01:54:38;16.63;;;7.60;;
59306;SDS011;47983;53.016;-2.260;2022-12-07T01:57:06;17.35;;;8.18;;
59306;SDS011;47983;53.016;-2.260;2022-12-07T01:59:35;19.70;;;8.43;;
59306;SDS011;47983;53.016;-2.260;2022-12-07T02:02:04;15.30;;;7.50;;
59306;SDS011;47983;53.016;-2.260;2022-12-07T02:04:37;21.38;;;7.63;;
59306;SDS011;47983;53.016;-2.260;2022-12-07T02:07:07;22.40;;;8.07;;
59306;SDS011;47983;53.016;-2.260;2022-12-07T02:09:39;26.40;;;8.35;;
59306;SDS011;47983;53.016;-2.260;2022-12-07T02:12:09;22.23;;;8.18;;
59306;SDS011;47983;53.016;-2.260;2022-12-07T02:14:42;16.80;;;8.00;;
59306;SDS011;47983;53.016;-2.260;2022-12-07T02:20:11;16.70;;;7.95;;
59306;SDS011;47983;53.016;-2.260;2022-12-07T02:35:05;21.05;;;8.10;;
59306;SDS011;47983;53.016;-2.260;2022-12-07T02:38:05;19.48;;;8.00;;
59306;SDS011;47983;53.016;-2.260;2022-12-07T02:40:50;19.17;;;9.50;;
59306;SDS011;47983;53.016;-2.260;2022-12-07T02:43:32;24.17;;;9.70;;
59306;SDS011;47983;53.016;-2.260;2022-12-07T02:46:09;28.20;;;8.82;;
59306;SDS011;47983;53.016;-2.260;2022-12-07T02:48:41;31.83;;;9.77;;
59306;SDS011;47983;53.016;-2.260;2022-12-07T02:51:13;19.60;;;9.32;;
59306;SDS011;47983;53.016;-2.260;2022-12-07T02:53:42;21.08;;;8.85;;
59306;SDS011;47983;53.016;-2.260;2022-12-07T02:56:13;28.20;;;9.63;;
59306;SDS011;47983;53.016;-2.260;2022-12-07T03:06:57;20.52;;;8.85;;
59306;SDS011;47983;53.016;-2.260;2022-12-07T03:09:37;16.35;;;8.30;;
59306;SDS011;47983;53.016;-2.260;2022-12-07T03:12:14;19.58;;;7.78;;
59306;SDS011;47983;53.016;-2.260;2022-12-07T03:14:49;18.45;;;9.40;;
59306;SDS011;47983;53.016;-2.260;2022-12-07T03:17:27;18.52;;;8.10;;
59306;SDS011;47983;53.016;-2.260;2022-12-07T03:19:59;19.45;;;8.65;;
59306;SDS011;47983;53.016;-2.260;2022-12-07T03:22:32;23.75;;;10.23;;
59306;SDS011;47983;53.016;-2.260;2022-12-07T03:25:09;22.92;;;8.88;;
59306;SDS011;47983;53.016;-2.260;2022-12-07T03:27:44;26.40;;;10.13;;
59306;SDS011;47983;53.016;-2.260;2022-12-07T03:30:23;23.10;;;9.77;;
59306;SDS011;47983;53.016;-2.260;2022-12-07T03:33:09;26.27;;;9.70;;
59306;SDS011;47983;53.016;-2.260;2022-12-07T03:38:57;20.17;;;9.27;;
59306;SDS011;47983;53.016;-2.260;2022-12-07T03:41:33;22.83;;;10.25;;
59306;SDS011;47983;53.016;-2.260;2022-12-07T03:44:11;30.42;;;12.02;;
59306;SDS011;47983;53.016;-2.260;2022-12-07T03:46:44;28.33;;;11.98;;
59306;SDS011;47983;53.016;-2.260;2022-12-07T03:49:41;31.10;;;12.00;;
59306;SDS011;47983;53.016;-2.260;2022-12-07T03:57:44;28.27;;;10.90;;
59306;SDS011;47983;53.016;-2.260;2022-12-07T04:00:16;22.25;;;10.75;;
59306;SDS011;47983;53.016;-2.260;2022-12-07T04:02:55;28.88;;;12.27;;
59306;SDS011;47983;53.016;-2.260;2022-12-07T04:05:23;24.65;;;11.98;;
59306;SDS011;47983;53.016;-2.260;2022-12-07T04:07:51;25.83;;;11.93;;
59306;SDS011;47983;53.016;-2.260;2022-12-07T04:10:19;32.80;;;12.77;;
59306;SDS011;47983;53.016;-2.260;2022-12-07T04:12:47;24.67;;;11.73;;
59306;SDS011;47983;53.016;-2.260;2022-12-07T04:15:14;27.52;;;11.45;;
59306;SDS011;47983;53.016;-2.260;2022-12-07T04:17:45;27.73;;;11.55;;
59306;SDS011;47983;53.016;-2.260;2022-12-07T04:20:13;26.45;;;11.13;;
59306;SDS011;47983;53.016;-2.260;2022-12-07T04:22:40;28.00;;;12.30;;
59306;SDS011;47983;53.016;-2.260;2022-12-07T04:25:08;27.05;;;12.85;;
59306;SDS011;47983;53.016;-2.260;2022-12-07T04:27:36;40.22;;;12.52;;
59306;SDS011;47983;53.016;-2.260;2022-12-07T04:30:06;35.67;;;11.45;;
59306;SDS011;47983;53.016;-2.260;2022-12-07T04:32:35;24.45;;;11.88;;
59306;SDS011;47983;53.016;-2.260;2022-12-07T04:35:06;25.13;;;11.23;;
59306;SDS011;47983;53.016;-2.260;2022-12-07T04:37:33;31.77;;;11.50;;
59306;SDS011;47983;53.016;-2.260;2022-12-07T04:40:01;24.15;;;11.63;;
59306;SDS011;47983;53.016;-2.260;2022-12-07T04:42:30;26.52;;;11.20;;
59306;SDS011;47983;53.016;-2.260;2022-12-07T04:44:57;23.95;;;10.13;;
59306;SDS011;47983;53.016;-2.260;2022-12-07T04:47:25;22.55;;;10.10;;
59306;SDS011;47983;53.016;-2.260;2022-12-07T04:49:53;23.77;;;10.90;;
59306;SDS011;47983;53.016;-2.260;2022-12-07T04:52:21;21.55;;;10.63;;
59306;SDS011;47983;53.016;-2.260;2022-12-07T04:54:49;25.67;;;11.15;;
59306;SDS011;47983;53.016;-2.260;2022-12-07T04:57:16;28.00;;;10.70;;
59306;SDS011;47983;53.016;-2.260;2022-12-07T04:59:44;18.63;;;9.90;;
59306;SDS011;47983;53.016;-2.260;2022-12-07T05:02:12;24.80;;;9.63;;
59306;SDS011;47983;53.016;-2.260;2022-12-07T05:05:00;22.52;;;10.02;;
59306;SDS011;47983;53.016;-2.260;2022-12-07T05:07:28;20.20;;;9.65;;
59306;SDS011;47983;53.016;-2.260;2022-12-07T05:09:55;25.08;;;9.07;;
59306;SDS011;47983;53.016;-2.260;2022-12-07T05:12:23;18.30;;;8.73;;
59306;SDS011;47983;53.016;-2.260;2022-12-07T05:14:51;21.48;;;9.35;;
59306;SDS011;47983;53.016;-2.260;2022-12-07T05:17:18;19.90;;;8.60;;
59306;SDS011;47983;53.016;-2.260;2022-12-07T05:19:46;19.77;;;7.97;;
59306;SDS011;47983;53.016;-2.260;2022-12-07T05:22:14;17.05;;;7.22;;
59306;SDS011;47983;53.016;-2.260;2022-12-07T05:24:42;18.02;;;7.28;;
59306;SDS011;47983;53.016;-2.260;2022-12-07T05:27:12;13.65;;;6.50;;
59306;SDS011;47983;53.016;-2.260;2022-12-07T05:29:39;19.42;;;7.70;;
59306;SDS011;47983;53.016;-2.260;2022-12-07T05:32:16;20.13;;;9.38;;
59306;SDS011;47983;53.016;-2.260;2022-12-07T05:34:44;17.77;;;9.23;;
59306;SDS011;47983;53.016;-2.260;2022-12-07T05:37:12;24.52;;;8.35;;
59306;SDS011;47983;53.016;-2.260;2022-12-07T05:39:40;25.20;;;8.43;;
59306;SDS011;47983;53.016;-2.260;2022-12-07T05:44:40;13.68;;;6.72;;
59306;SDS011;47983;53.016;-2.260;2022-12-07T05:47:13;22.70;;;8.27;;
59306;SDS011;47983;53.016;-2.260;2022-12-07T05:49:45;18.77;;;7.95;;
59306;SDS011;47983;53.016;-2.260;2022-12-07T05:52:13;21.92;;;7.72;;
59306;SDS011;47983;53.016;-2.260;2022-12-07T05:54:40;21.60;;;8.07;;
59306;SDS011;47983;53.016;-2.260;2022-12-07T05:57:09;20.87;;;9.03;;
59306;SDS011;47983;53.016;-2.260;2022-12-07T05:59:40;18.27;;;9.20;;
59306;SDS011;47983;53.016;-2.260;2022-12-07T06:02:12;15.77;;;8.70;;
59306;SDS011;47983;53.016;-2.260;2022-12-07T06:04:50;18.40;;;10.02;;
59306;SDS011;47983;53.016;-2.260;2022-12-07T06:07:22;23.38;;;10.70;;
59306;SDS011;47983;53.016;-2.260;2022-12-07T06:09:51;29.52;;;12.40;;
59306;SDS011;47983;53.016;-2.260;2022-12-07T06:12:19;30.30;;;11.38;;
59306;SDS011;47983;53.016;-2.260;2022-12-07T06:15:05;23.05;;;10.25;;
59306;SDS011;47983;53.016;-2.260;2022-12-07T06:17:33;25.50;;;12.80;;
59306;SDS011;47983;53.016;-2.260;2022-12-07T06:20:02;36.70;;;12.25;;
59306;SDS011;47983;53.016;-2.260;2022-12-07T06:22:34;32.88;;;12.65;;
59306;SDS011;47983;53.016;-2.260;2022-12-07T06:25:04;27.85;;;12.75;;
59306;SDS011;47983;53.016;-2.260;2022-12-07T06:27:35;36.05;;;13.40;;
59306;SDS011;47983;53.016;-2.260;2022-12-07T06:30:05;30.23;;;12.68;;
59306;SDS011;47983;53.016;-2.260;2022-12-07T06:32:33;32.00;;;12.93;;
59306;SDS011;47983;53.016;-2.260;2022-12-07T06:37:31;26.77;;;12.38;;
59306;SDS011;47983;53.016;-2.260;2022-12-07T06:40:08;29.80;;;13.85;;
59306;SDS011;47983;53.016;-2.260;2022-12-07T06:42:36;29.58;;;12.75;;
59306;SDS011;47983;53.016;-2.260;2022-12-07T06:45:04;30.67;;;11.77;;
59306;SDS011;47983;53.016;-2.260;2022-12-07T06:47:33;32.88;;;11.70;;
59306;SDS011;47983;53.016;-2.260;2022-12-07T06:50:15;30.70;;;13.15;;
59306;SDS011;47983;53.016;-2.260;2022-12-07T06:52:43;30.77;;;12.48;;
59306;SDS011;47983;53.016;-2.260;2022-12-07T06:55:11;31.05;;;12.88;;
59306;SDS011;47983;53.016;-2.260;2022-12-07T06:57:39;33.17;;;12.88;;
59306;SDS011;47983;53.016;-2.260;2022-12-07T07:00:07;29.23;;;13.30;;
59306;SDS011;47983;53.016;-2.260;2022-12-07T07:02:35;31.95;;;13.60;;
59306;SDS011;47983;53.016;-2.260;2022-12-07T07:05:03;33.10;;;14.05;;
59306;SDS011;47983;53.016;-2.260;2022-12-07T07:07:31;26.65;;;13.60;;
59306;SDS011;47983;53.016;-2.260;2022-12-07T07:10:18;30.88;;;12.45;;
59306;SDS011;47983;53.016;-2.260;2022-12-07T07:12:45;32.58;;;14.02;;
59306;SDS011;47983;53.016;-2.260;2022-12-07T07:15:13;32.78;;;15.20;;
59306;SDS011;47983;53.016;-2.260;2022-12-07T07:17:41;27.10;;;13.63;;
59306;SDS011;47983;53.016;-2.260;2022-12-07T07:20:09;30.92;;;13.43;;
59306;SDS011;47983;53.016;-2.260;2022-12-07T07:22:37;29.02;;;14.45;;
59306;SDS011;47983;53.016;-2.260;2022-12-07T07:25:05;34.10;;;15.23;;
59306;SDS011;47983;53.016;-2.260;2022-12-07T07:27:33;28.25;;;14.00;;
59306;SDS011;47983;53.016;-2.260;2022-12-07T07:30:00;31.83;;;14.25;;
59306;SDS011;47983;53.016;-2.260;2022-12-07T07:32:29;37.90;;;14.90;;
59306;SDS011;47983;53.016;-2.260;2022-12-07T07:34:57;31.38;;;14.38;;
59306;SDS011;47983;53.016;-2.260;2022-12-07T07:37:25;35.35;;;14.07;;
59306;SDS011;47983;53.016;-2.260;2022-12-07T07:39:53;31.55;;;14.38;;
59306;SDS011;47983;53.016;-2.260;2022-12-07T07:42:21;32.20;;;13.13;;
59306;SDS011;47983;53.016;-2.260;2022-12-07T07:44:48;28.63;;;13.63;;
59306;SDS011;47983;53.016;-2.260;2022-12-07T07:47:16;34.08;;;14.50;;
59306;SDS011;47983;53.016;-2.260;2022-12-07T07:49:44;27.13;;;14.45;;
59306;SDS011;47983;53.016;-2.260;2022-12-07T07:52:14;26.92;;;14.20;;
59306;SDS011;47983;53.016;-2.260;2022-12-07T07:57:11;27.88;;;13.23;;
59306;SDS011;47983;53.016;-2.260;2022-12-07T07:59:43;25.83;;;12.63;;
59306;SDS011;47983;53.016;-2.260;2022-12-07T08:02:15;32.05;;;13.35;;
59306;SDS011;47983;53.016;-2.260;2022-12-07T08:04:45;27.67;;;13.63;;
59306;SDS011;47983;53.016;-2.260;2022-12-07T08:07:15;28.42;;;12.82;;
59306;SDS011;47983;53.016;-2.260;2022-12-07T08:09:43;34.40;;;14.13;;
59306;SDS011;47983;53.016;-2.260;2022-12-07T08:12:14;37.38;;;15.02;;
59306;SDS011;47983;53.016;-2.260;2022-12-07T08:14:41;32.40;;;14.35;;
59306;SDS011;47983;53.016;-2.260;2022-12-07T08:17:09;32.28;;;13.18;;
59306;SDS011;47983;53.016;-2.260;2022-12-07T08:19:37;30.98;;;13.70;;
59306;SDS011;47983;53.016;-2.260;2022-12-07T08:22:05;33.20;;;13.48;;
59306;SDS011;47983;53.016;-2.260;2022-12-07T08:24:33;37.35;;;15.38;;
59306;SDS011;47983;53.016;-2.260;2022-12-07T08:27:02;31.98;;;13.05;;
59306;SDS011;47983;53.016;-2.260;2022-12-07T08:29:30;26.80;;;12.13;;
59306;SDS011;47983;53.016;-2.260;2022-12-07T08:31:58;40.85;;;14.93;;
59306;SDS011;47983;53.016;-2.260;2022-12-07T08:34:38;30.70;;;13.25;;
59306;SDS011;47983;53.016;-2.260;2022-12-07T08:37:06;32.30;;;15.27;;
59306;SDS011;47983;53.016;-2.260;2022-12-07T08:39:36;32.33;;;14.10;;
59306;SDS011;47983;53.016;-2.260;2022-12-07T08:42:03;37.80;;;15.25;;
59306;SDS011;47983;53.016;-2.260;2022-12-07T08:44:32;36.97;;;14.52;;
59306;SDS011;47983;53.016;-2.260;2022-12-07T08:47:01;38.33;;;15.43;;
59306;SDS011;47983;53.016;-2.260;2022-12-07T08:49:39;30.17;;;13.77;;
59306;SDS011;47983;53.016;-2.260;2022-12-07T08:52:08;35.72;;;14.75;;
59306;SDS011;47983;53.016;-2.260;2022-12-07T08:54:37;38.88;;;16.30;;
59306;SDS011;47983;53.016;-2.260;2022-12-07T08:57:07;43.92;;;15.52;;
59306;SDS011;47983;53.016;-2.260;2022-12-07T08:59:36;32.00;;;14.90;;
59306;SDS011;47983;53.016;-2.260;2022-12-07T09:02:04;30.95;;;14.55;;
59306;SDS011;47983;53.016;-2.260;2022-12-07T09:04:34;38.22;;;17.80;;
59306;SDS011;47983;53.016;-2.260;2022-12-07T09:07:04;37.20;;;17.30;;
59306;SDS011;47983;53.016;-2.260;2022-12-07T09:09:33;32.90;;;15.25;;
59306;SDS011;47983;53.016;-2.260;2022-12-07T09:12:01;33.40;;;14.70;;
59306;SDS011;47983;53.016;-2.260;2022-12-07T09:14:29;36.90;;;16.20;;
59306;SDS011;47983;53.016;-2.260;2022-12-07T09:17:10;38.05;;;15.77;;
59306;SDS011;47983;53.016;-2.260;2022-12-07T09:19:51;34.30;;;15.00;;
59306;SDS011;47983;53.016;-2.260;2022-12-07T09:22:19;31.05;;;14.65;;
59306;SDS011;47983;53.016;-2.260;2022-12-07T09:24:48;37.20;;;14.80;;
59306;SDS011;47983;53.016;-2.260;2022-12-07T09:27:16;28.63;;;11.00;;
59306;SDS011;47983;53.016;-2.260;2022-12-07T09:29:45;23.17;;;10.97;;
59306;SDS011;47983;53.016;-2.260;2022-12-07T09:32:13;24.15;;;10.82;;
59306;SDS011;47983;53.016;-2.260;2022-12-07T09:34:41;22.05;;;10.85;;
59306;SDS011;47983;53.016;-2.260;2022-12-07T09:37:09;23.77;;;11.65;;
59306;SDS011;47983;53.016;-2.260;2022-12-07T09:39:40;27.38;;;12.73;;
59306;SDS011;47983;53.016;-2.260;2022-12-07T09:42:30;25.85;;;11.70;;
59306;SDS011;47983;53.016;-2.260;2022-12-07T09:47:39;29.05;;;11.95;;
59306;SDS011;47983;53.016;-2.260;2022-12-07T09:50:12;24.25;;;11.82;;
59306;SDS011;47983;53.016;-2.260;2022-12-07T09:52:48;30.33;;;12.23;;
59306;SDS011;47983;53.016;-2.260;2022-12-07T09:55:24;30.25;;;13.43;;
59306;SDS011;47983;53.016;-2.260;2022-12-07T09:57:58;25.10;;;11.75;;
59306;SDS011;47983;53.016;-2.260;2022-12-07T10:00:26;28.90;;;13.52;;
59306;SDS011;47983;53.016;-2.260;2022-12-07T10:02:59;26.88;;;13.20;;
59306;SDS011;47983;53.016;-2.260;2022-12-07T10:05:41;25.88;;;12.82;;
59306;SDS011;47983;53.016;-2.260;2022-12-07T10:08:15;37.50;;;13.38;;
59306;SDS011;47983;53.016;-2.260;2022-12-07T10:10:48;25.55;;;10.93;;
59306;SDS011;47983;53.016;-2.260;2022-12-07T10:13:19;27.50;;;12.90;;
59306;SDS011;47983;53.016;-2.260;2022-12-07T10:15:51;115.65;;;17.95;;
59306;SDS011;47983;53.016;-2.260;2022-12-07T10:18:25;24.38;;;10.40;;
59306;SDS011;47983;53.016;-2.260;2022-12-07T10:23:30;17.38;;;6.50;;
59306;SDS011;47983;53.016;-2.260;2022-12-07T10:25:57;13.75;;;7.38;;
59306;SDS011;47983;53.016;-2.260;2022-12-07T10:28:33;14.73;;;7.05;;
59306;SDS011;47983;53.016;-2.260;2022-12-07T10:31:18;18.05;;;7.45;;
59306;SDS011;47983;53.016;-2.260;2022-12-07T10:39:03;16.83;;;6.35;;
59306;SDS011;47983;53.016;-2.260;2022-12-07T10:41:55;16.80;;;6.78;;
59306;SDS011;47983;53.016;-2.260;2022-12-07T10:44:28;15.55;;;7.00;;
59306;SDS011;47983;53.016;-2.260;2022-12-07T10:53:02;20.70;;;6.53;;
59306;SDS011;47983;53.016;-2.260;2022-12-07T10:55:46;15.38;;;5.18;;
59306;SDS011;47983;53.016;-2.260;2022-12-07T10:58:38;18.05;;;4.47;;
59306;SDS011;47983;53.016;-2.260;2022-12-07T11:03:48;6.50;;;3.40;;
59306;SDS011;47983;53.016;-2.260;2022-12-07T11:12:13;6.72;;;3.58;;
59306;SDS011;47983;53.016;-2.260;2022-12-07T11:20:43;14.00;;;6.18;;
59306;SDS011;47983;53.016;-2.260;2022-12-07T11:29:18;8.25;;;2.72;;
59306;SDS011;47983;53.016;-2.260;2022-12-07T11:37:31;8.25;;;3.33;;
59306;SDS011;47983;53.016;-2.260;2022-12-07T11:40:13;5.27;;;2.80;;
59306;SDS011;47983;53.016;-2.260;2022-12-07T11:42:55;8.23;;;3.65;;
59306;SDS011;47983;53.016;-2.260;2022-12-07T11:45:34;17.73;;;4.07;;
59306;SDS011;47983;53.016;-2.260;2022-12-07T11:48:06;10.98;;;3.97;;
59306;SDS011;47983;53.016;-2.260;2022-12-07T11:53:26;10.45;;;4.60;;
59306;SDS011;47983;53.016;-2.260;2022-12-07T11:56:02;11.02;;;3.80;;
59306;SDS011;47983;53.016;-2.260;2022-12-07T12:06:38;11.05;;;4.88;;
59306;SDS011;47983;53.016;-2.260;2022-12-07T12:20:20;9.63;;;4.07;;
59306;SDS011;47983;53.016;-2.260;2022-12-07T12:22:58;8.30;;;4.00;;
59306;SDS011;47983;53.016;-2.260;2022-12-07T12:25:52;7.22;;;2.83;;
59306;SDS011;47983;53.016;-2.260;2022-12-07T12:28:25;6.78;;;2.70;;
59306;SDS011;47983;53.016;-2.260;2022-12-07T12:31:13;4.90;;;2.25;;
59306;SDS011;47983;53.016;-2.260;2022-12-07T12:33:47;6.35;;;1.73;;
59306;SDS011;47983;53.016;-2.260;2022-12-07T12:51:48;15.20;;;2.47;;
59306;SDS011;47983;53.016;-2.260;2022-12-07T12:59:33;7.88;;;1.67;;
59306;SDS011;47983;53.016;-2.260;2022-12-07T13:15:42;4.05;;;2.10;;
59306;SDS011;47983;53.016;-2.260;2022-12-07T13:20:58;6.95;;;1.80;;
59306;SDS011;47983;53.016;-2.260;2022-12-07T13:28:58;6.05;;;1.77;;
59306;SDS011;47983;53.016;-2.260;2022-12-07T13:44:56;7.88;;;1.83;;
59306;SDS011;47983;53.016;-2.260;2022-12-07T13:47:32;6.38;;;2.35;;
59306;SDS011;47983;53.016;-2.260;2022-12-07T13:50:25;5.65;;;1.77;;
59306;SDS011;47983;53.016;-2.260;2022-12-07T13:52:59;5.68;;;2.03;;
59306;SDS011;47983;53.016;-2.260;2022-12-07T13:55:28;4.50;;;2.38;;
59306;SDS011;47983;53.016;-2.260;2022-12-07T13:57:56;4.82;;;2.00;;
59306;SDS011;47983;53.016;-2.260;2022-12-07T14:00:25;6.22;;;2.13;;
59306;SDS011;47983;53.016;-2.260;2022-12-07T14:07:59;7.32;;;3.20;;
59306;SDS011;47983;53.016;-2.260;2022-12-07T14:12:59;4.88;;;2.17;;
59306;SDS011;47983;53.016;-2.260;2022-12-07T14:15:32;7.63;;;3.05;;
59306;SDS011;47983;53.016;-2.260;2022-12-07T14:18:02;5.78;;;2.53;;
59306;SDS011;47983;53.016;-2.260;2022-12-07T14:20:37;6.85;;;2.28;;
59306;SDS011;47983;53.016;-2.260;2022-12-07T14:23:21;8.85;;;2.50;;
59306;SDS011;47983;53.016;-2.260;2022-12-07T14:25:52;6.32;;;2.58;;
59306;SDS011;47983;53.016;-2.260;2022-12-07T14:30:55;6.32;;;2.22;;
59306;SDS011;47983;53.016;-2.260;2022-12-07T14:33:24;7.60;;;2.53;;
59306;SDS011;47983;53.016;-2.260;2022-12-07T14:35:52;7.18;;;2.88;;
59306;SDS011;47983;53.016;-2.260;2022-12-07T14:38:25;7.03;;;2.42;;
59306;SDS011;47983;53.016;-2.260;2022-12-07T14:40:53;5.15;;;2.33;;
59306;SDS011;47983;53.016;-2.260;2022-12-07T14:43:21;8.15;;;2.90;;
59306;SDS011;47983;53.016;-2.260;2022-12-07T14:45:49;8.30;;;2.88;;
59306;SDS011;47983;53.016;-2.260;2022-12-07T14:48:17;7.78;;;2.88;;
59306;SDS011;47983;53.016;-2.260;2022-12-07T14:51:04;5.10;;;2.47;;
59306;SDS011;47983;53.016;-2.260;2022-12-07T14:53:54;7.13;;;2.70;;
59306;SDS011;47983;53.016;-2.260;2022-12-07T14:56:24;12.30;;;5.10;;
59306;SDS011;47983;53.016;-2.260;2022-12-07T14:58:52;8.15;;;3.85;;
59306;SDS011;47983;53.016;-2.260;2022-12-07T15:01:19;13.00;;;4.60;;
59306;SDS011;47983;53.016;-2.260;2022-12-07T15:03:47;11.70;;;3.40;;
59306;SDS011;47983;53.016;-2.260;2022-12-07T15:06:16;13.57;;;4.15;;
59306;SDS011;47983;53.016;-2.260;2022-12-07T15:08:45;11.77;;;4.07;;
59306;SDS011;47983;53.016;-2.260;2022-12-07T15:11:13;8.85;;;3.42;;
59306;SDS011;47983;53.016;-2.260;2022-12-07T15:13:42;13.00;;;3.75;;
59306;SDS011;47983;53.016;-2.260;2022-12-07T15:16:28;7.20;;;4.13;;
59306;SDS011;47983;53.016;-2.260;2022-12-07T15:19:17;8.65;;;4.70;;
59306;SDS011;47983;53.016;-2.260;2022-12-07T15:21:55;12.77;;;3.97;;
59306;SDS011;47983;53.016;-2.260;2022-12-07T15:24:23;11.43;;;4.07;;
59306;SDS011;47983;53.016;-2.260;2022-12-07T15:26:51;10.90;;;4.65;;
59306;SDS011;47983;53.016;-2.260;2022-12-07T15:29:19;13.05;;;4.82;;
59306;SDS011;47983;53.016;-2.260;2022-12-07T15:31:50;9.80;;;4.68;;
59306;SDS011;47983;53.016;-2.260;2022-12-07T15:34:24;14.85;;;4.28;;
59306;SDS011;47983;53.016;-2.260;2022-12-07T15:36:52;19.13;;;5.50;;
59306;SDS011;47983;53.016;-2.260;2022-12-07T15:39:20;16.00;;;5.90;;
59306;SDS011;47983;53.016;-2.260;2022-12-07T15:41:49;16.92;;;7.20;;
59306;SDS011;47983;53.016;-2.260;2022-12-07T15:44:16;15.75;;;7.75;;
59306;SDS011;47983;53.016;-2.260;2022-12-07T15:47:03;22.65;;;11.23;;
59306;SDS011;47983;53.016;-2.260;2022-12-07T15:49:31;22.75;;;12.10;;
59306;SDS011;47983;53.016;-2.260;2022-12-07T15:51:59;21.80;;;11.93;;
59306;SDS011;47983;53.016;-2.260;2022-12-07T15:54:29;22.00;;;11.88;;
59306;SDS011;47983;53.016;-2.260;2022-12-07T15:56:59;20.02;;;10.30;;
59306;SDS011;47983;53.016;-2.260;2022-12-07T15:59:27;21.48;;;9.20;;
59306;SDS011;47983;53.016;-2.260;2022-12-07T16:02:05;14.77;;;7.88;;
59306;SDS011;47983;53.016;-2.260;2022-12-07T16:04:33;17.25;;;7.63;;
59306;SDS011;47983;53.016;-2.260;2022-12-07T16:07:00;14.63;;;7.50;;
59306;SDS011;47983;53.016;-2.260;2022-12-07T16:09:28;23.05;;;7.50;;
59306;SDS011;47983;53.016;-2.260;2022-12-07T16:11:56;16.60;;;6.97;;
59306;SDS011;47983;53.016;-2.260;2022-12-07T16:14:23;21.70;;;7.88;;
59306;SDS011;47983;53.016;-2.260;2022-12-07T16:16:51;12.73;;;7.72;;
59306;SDS011;47983;53.016;-2.260;2022-12-07T16:19:19;17.92;;;8.52;;
59306;SDS011;47983;53.016;-2.260;2022-12-07T16:21:46;15.27;;;8.40;;
59306;SDS011;47983;53.016;-2.260;2022-12-07T16:24:14;20.27;;;9.95;;
59306;SDS011;47983;53.016;-2.260;2022-12-07T16:26:43;21.10;;;9.35;;
59306;SDS011;47983;53.016;-2.260;2022-12-07T16:29:17;20.80;;;9.68;;
59306;SDS011;47983;53.016;-2.260;2022-12-07T16:31:46;29.33;;;13.32;;
59306;SDS011;47983;53.016;-2.260;2022-12-07T16:34:14;18.77;;;8.65;;
59306;SDS011;47983;53.016;-2.260;2022-12-07T16:36:42;31.08;;;11.32;;
59306;SDS011;47983;53.016;-2.260;2022-12-07T16:39:30;20.75;;;9.85;;
59306;SDS011;47983;53.016;-2.260;2022-12-07T16:41:58;18.73;;;8.57;;
59306;SDS011;47983;53.016;-2.260;2022-12-07T16:44:26;22.55;;;8.75;;
59306;SDS011;47983;53.016;-2.260;2022-12-07T16:46:54;18.13;;;7.57;;
59306;SDS011;47983;53.016;-2.260;2022-12-07T16:49:22;16.63;;;8.40;;
59306;SDS011;47983;53.016;-2.260;2022-12-07T16:51:51;15.63;;;7.82;;
59306;SDS011;47983;53.016;-2.260;2022-12-07T16:54:39;16.65;;;6.80;;
59306;SDS011;47983;53.016;-2.260;2022-12-07T16:57:06;15.65;;;5.50;;
59306;SDS011;47983;53.016;-2.260;2022-12-07T16:59:34;14.23;;;6.90;;
59306;SDS011;47983;53.016;-2.260;2022-12-07T17:02:01;18.55;;;7.82;;
59306;SDS011;47983;53.016;-2.260;2022-12-07T17:04:32;14.70;;;7.45;;
59306;SDS011;47983;53.016;-2.260;2022-12-07T17:07:00;12.57;;;6.70;;
59306;SDS011;47983;53.016;-2.260;2022-12-07T17:09:28;15.88;;;7.07;;
59306;SDS011;47983;53.016;-2.260;2022-12-07T17:11:55;16.48;;;6.65;;
59306;SDS011;47983;53.016;-2.260;2022-12-07T17:14:23;15.13;;;7.80;;
59306;SDS011;47983;53.016;-2.260;2022-12-07T17:17:09;30.75;;;11.88;;
59306;SDS011;47983;53.016;-2.260;2022-12-07T17:19:38;29.88;;;12.20;;
59306;SDS011;47983;53.016;-2.260;2022-12-07T17:22:06;27.37;;;12.83;;
59306;SDS011;47983;53.016;-2.260;2022-12-07T17:24:33;24.02;;;10.77;;
59306;SDS011;47983;53.016;-2.260;2022-12-07T17:27:01;28.85;;;13.15;;
59306;SDS011;47983;53.016;-2.260;2022-12-07T17:29:29;34.85;;;14.25;;
59306;SDS011;47983;53.016;-2.260;2022-12-07T17:31:57;28.90;;;13.52;;
59306;SDS011;47983;53.016;-2.260;2022-12-07T17:34:24;35.53;;;14.95;;
59306;SDS011;47983;53.016;-2.260;2022-12-07T17:36:52;40.70;;;15.02;;
59306;SDS011;47983;53.016;-2.260;2022-12-07T17:39:21;25.42;;;12.90;;
59306;SDS011;47983;53.016;-2.260;2022-12-07T17:41:49;28.67;;;14.93;;
59306;SDS011;47983;53.016;-2.260;2022-12-07T17:44:38;36.55;;;15.73;;